Terminal Aerodrome Forecast
Issued by NWS Des Moines, IA

Home | Current Version | Previous Version | Text Only | Print | Product List | Glossary On
Versions: 1 2 3 4 5 6 7 8 9 10 11 12 13 14 15 16 17 18 19 20
000
FTUS43 KDMX 252201 AAA
TAFALO
TAF AMD
KALO 252201Z 2522/2618 07013KT 6SM BR OVC009
     FM252300 06012KT 5SM BR VCSH OVC005
     FM260800 04007KT 2SM BR VCSH OVC005
     FM261700 35006KT 4SM BR OVC005=

USA.gov is the U.S. government's official web portal to all federal, state and local government web resources and services.